CheckWX is a tool to help pilots better visualize weather data.  It is not intended as a substitute for an official pre-flight weather briefing.

18:47:06 UTC

KBVY METAR
Beverly Regional Airport
Beverly, Massachusetts, USA
Current

54 mins ago

KBVY 171753Z 00000KT 10SM CLR M01/M15 A3007 RMK AO2 SLP180 T10061150 10006 21061 58021
Observed
Feb-17 @ 17:53 UTC
Visibility
10 SM
Flight Rules
VFR
Cloud Levels
  • Clear skies
Temperature
-1°C / 30°F
Dewpoint
-15°C / 5°F
Humidity
34%
Altimeter
30.07" Hg
Pressure
1018 hPa
Previous

2 hours ago

KBVY 171653Z 28006KT 10SM CLR M01/M14 A3010 RMK AO2 SLP189 T10061144
Observed
Feb-17 @ 16:53 UTC
Wind
  • 280° at 6 KTS
Visibility
10 SM
Flight Rules
VFR
Cloud Levels
  • Clear skies
Temperature
-1°C / 30°F
Dewpoint
-14°C / 7°F
Humidity
37%
Altimeter
30.1" Hg
Pressure
1018.9 hPa
Previous

3 hours ago

KBVY 171553Z 33009KT 10SM CLR M02/M14 A3013 RMK AO2 SLP199 T10171144
Observed
Feb-17 @ 15:53 UTC
Wind
  • 330° at 9 KTS
Visibility
10 SM
Flight Rules
VFR
Cloud Levels
  • Clear skies
Temperature
-2°C / 28°F
Dewpoint
-14°C / 7°F
Humidity
40%
Altimeter
30.13" Hg
Pressure
1019.9 hPa